MED858 RPVD-RPVR

Flight info

Callsign MED858
Flight time 0h 51m
Altitude 6500
Route VFR
Aircraft BE58/L-SDFGRY/C

Departure

Time 2026-04-23 04:37
Airport Sibulan Airport (RPVD)

Arrival

Time 2026-04-23 05:29
Airport Roxas Airport (RPVR)
Time Latitude Longitude Altitude Speed Heading
2026-04-23 04:25 9.33402 123.29365 46 ft 0 kts 265°
2026-04-23 04:31 9.33409 123.29357 46 ft 0 kts 19°
2026-04-23 04:36 9.33423 123.29362 47 ft 6 kts 20°
2026-04-23 04:36 9.33464 123.29397 48 ft 7 kts 92°
2026-04-23 04:36 9.33463 123.29404 48 ft 0 kts 95°
2026-04-23 04:36 9.33456 123.29535 47 ft 59 kts 94°
2026-04-23 04:37 9.33416 123.30186 121 ft 116 kts 92°
2026-04-23 04:37 9.33357 123.31095 354 ft 139 kts 91°
2026-04-23 04:37 9.33570 123.32051 648 ft 146 kts 58°
2026-04-23 04:37 9.34360 123.32680 918 ft 150 kts 22°
2026-04-23 04:38 9.35417 123.32701 1080 ft 157 kts 344°
2026-04-23 04:38 9.36312 123.32046 1229 ft 163 kts 313°
2026-04-23 04:38 9.37018 123.31172 1472 ft 162 kts 310°
2026-04-23 04:38 9.37728 123.30279 1652 ft 164 kts 311°
2026-04-23 04:39 9.38440 123.29364 1841 ft 165 kts 308°
2026-04-23 04:39 9.39126 123.28438 2059 ft 163 kts 309°
2026-04-23 04:39 9.39835 123.27536 2241 ft 165 kts 310°
2026-04-23 04:39 9.40578 123.26650 2473 ft 164 kts 314°
2026-04-23 04:40 9.41385 123.25850 2729 ft 161 kts 320°
2026-04-23 04:40 9.42225 123.25086 2913 ft 164 kts 320°
2026-04-23 04:40 9.43097 123.24341 3097 ft 164 kts 324°
2026-04-23 04:40 9.43969 123.23607 3307 ft 162 kts 323°
2026-04-23 04:41 9.44836 123.22884 3530 ft 161 kts 323°
2026-04-23 04:41 9.45718 123.22172 3720 ft 163 kts 326°
2026-04-23 04:41 9.46630 123.21476 3911 ft 165 kts 326°
2026-04-23 04:41 9.47551 123.20776 4103 ft 165 kts 326°
2026-04-23 04:42 9.48465 123.20073 4297 ft 165 kts 326°
2026-04-23 04:42 9.49365 123.19383 4490 ft 164 kts 326°
2026-04-23 04:42 9.50274 123.18695 4687 ft 163 kts 326°
2026-04-23 04:42 9.51178 123.18013 4866 ft 162 kts 326°
2026-04-23 04:43 9.52081 123.17340 5054 ft 160 kts 326°
2026-04-23 04:43 9.52992 123.16702 5240 ft 159 kts 329°
2026-04-23 04:43 9.53914 123.16092 5431 ft 158 kts 329°
2026-04-23 04:43 9.54832 123.15482 5617 ft 158 kts 328°
2026-04-23 04:44 9.55744 123.14880 5805 ft 155 kts 329°
2026-04-23 04:44 9.56634 123.14286 6003 ft 152 kts 329°
2026-04-23 04:44 9.57524 123.13710 6189 ft 152 kts 329°
2026-04-23 04:44 9.58426 123.13160 6377 ft 151 kts 334°
2026-04-23 04:45 9.59352 123.12656 6486 ft 155 kts 334°
2026-04-23 04:45 9.60339 123.12129 6501 ft 164 kts 334°
2026-04-23 04:45 9.61374 123.11582 6507 ft 170 kts 334°
2026-04-23 04:45 9.62438 123.11020 6501 ft 174 kts 334°
2026-04-23 04:46 9.63508 123.10460 6504 ft 173 kts 334°
2026-04-23 04:46 9.64582 123.09901 6505 ft 175 kts 334°
2026-04-23 04:46 9.65669 123.09317 6502 ft 179 kts 333°
2026-04-23 04:46 9.66764 123.08694 6504 ft 182 kts 332°
2026-04-23 04:47 9.67876 123.08060 6509 ft 185 kts 332°
2026-04-23 04:47 9.68992 123.07428 6507 ft 186 kts 332°
2026-04-23 04:47 9.70123 123.06778 6507 ft 187 kts 332°
2026-04-23 04:47 9.71267 123.06117 6503 ft 191 kts 333°
2026-04-23 04:48 9.72474 123.05567 6502 ft 190 kts 340°
2026-04-23 04:48 9.73703 123.05078 6504 ft 189 kts 340°
2026-04-23 04:48 9.74920 123.04596 6499 ft 187 kts 340°
2026-04-23 04:48 9.76135 123.04127 6500 ft 187 kts 340°
2026-04-23 04:49 9.77348 123.03650 6493 ft 187 kts 340°
2026-04-23 04:49 9.78563 123.03168 6490 ft 188 kts 340°
2026-04-23 04:49 9.79774 123.02686 6480 ft 186 kts 340°
2026-04-23 04:49 9.80985 123.02227 6496 ft 187 kts 342°
2026-04-23 04:50 9.82210 123.01782 6493 ft 186 kts 341°
2026-04-23 04:50 9.83428 123.01343 6486 ft 185 kts 342°
2026-04-23 04:50 9.84634 123.00914 6481 ft 183 kts 342°
2026-04-23 04:50 9.85818 123.00494 6483 ft 182 kts 342°
2026-04-23 04:51 9.87013 123.00076 6483 ft 182 kts 342°
2026-04-23 04:51 9.88207 122.99658 6472 ft 181 kts 342°
2026-04-23 04:51 9.89402 122.99235 6487 ft 182 kts 342°
2026-04-23 04:51 9.90601 122.98811 6480 ft 182 kts 342°
2026-04-23 04:52 9.91799 122.98376 6484 ft 184 kts 342°
2026-04-23 04:52 9.93008 122.97941 6485 ft 184 kts 342°
2026-04-23 04:52 9.94218 122.97512 6482 ft 184 kts 342°
2026-04-23 04:52 9.95421 122.97087 6480 ft 182 kts 342°
2026-04-23 04:53 9.96615 122.96670 6480 ft 181 kts 342°
2026-04-23 04:53 9.97807 122.96257 6478 ft 181 kts 342°
2026-04-23 04:53 9.98994 122.95835 6473 ft 180 kts 342°
2026-04-23 04:53 10.00178 122.95416 6477 ft 180 kts 342°
2026-04-23 04:54 10.01363 122.94994 6476 ft 180 kts 342°
2026-04-23 04:54 10.02549 122.94562 6483 ft 182 kts 342°
2026-04-23 04:54 10.03751 122.94134 6475 ft 184 kts 342°
2026-04-23 04:54 10.04960 122.93705 6476 ft 184 kts 342°
2026-04-23 04:55 10.06168 122.93271 6477 ft 184 kts 342°
2026-04-23 04:55 10.07370 122.92847 6476 ft 183 kts 342°
2026-04-23 04:55 10.08557 122.92427 6472 ft 183 kts 342°
2026-04-23 04:55 10.09762 122.91997 6474 ft 183 kts 342°
2026-04-23 04:56 10.10985 122.91631 6478 ft 183 kts 347°
2026-04-23 04:56 10.12220 122.91325 6477 ft 182 kts 348°
2026-04-23 04:56 10.13455 122.91020 6475 ft 182 kts 348°
2026-04-23 04:56 10.14688 122.90725 6475 ft 182 kts 348°
2026-04-23 04:57 10.15920 122.90425 6476 ft 182 kts 348°
2026-04-23 04:57 10.17155 122.90129 6476 ft 183 kts 348°
2026-04-23 04:57 10.18397 122.89824 6478 ft 184 kts 348°
2026-04-23 04:57 10.19643 122.89512 6467 ft 184 kts 348°
2026-04-23 04:58 10.20882 122.89205 6472 ft 183 kts 348°
2026-04-23 04:58 10.22120 122.88892 6470 ft 183 kts 349°
2026-04-23 04:58 10.23361 122.88574 6474 ft 184 kts 349°
2026-04-23 04:58 10.24602 122.88247 6474 ft 185 kts 348°
2026-04-23 04:59 10.25846 122.87914 6468 ft 185 kts 347°
2026-04-23 04:59 10.27093 122.87595 6477 ft 185 kts 349°
2026-04-23 04:59 10.28348 122.87267 6475 ft 186 kts 348°
2026-04-23 04:59 10.29604 122.86938 6471 ft 186 kts 348°
2026-04-23 05:00 10.30860 122.86599 6480 ft 188 kts 348°
2026-04-23 05:00 10.32126 122.86246 6478 ft 189 kts 348°
2026-04-23 05:00 10.33397 122.85907 6479 ft 189 kts 348°
2026-04-23 05:00 10.34659 122.85567 6478 ft 188 kts 347°
2026-04-23 05:01 10.35919 122.85235 6474 ft 186 kts 348°
2026-04-23 05:01 10.37170 122.84907 6473 ft 185 kts 348°
2026-04-23 05:01 10.38401 122.84576 6470 ft 185 kts 347°
2026-04-23 05:01 10.39651 122.84245 6473 ft 186 kts 348°
2026-04-23 05:02 10.40899 122.83906 6468 ft 186 kts 348°
2026-04-23 05:02 10.42147 122.83558 6470 ft 185 kts 348°
2026-04-23 05:02 10.43401 122.83267 6466 ft 184 kts 355°
2026-04-23 05:02 10.44675 122.83129 6468 ft 184 kts 357°
2026-04-23 05:03 10.45959 122.83031 6465 ft 186 kts 359°
2026-04-23 05:03 10.47247 122.82924 6474 ft 187 kts 358°
2026-04-23 05:03 10.48545 122.82811 6474 ft 187 kts 358°
2026-04-23 05:03 10.49851 122.82695 6477 ft 188 kts 358°
2026-04-23 05:04 10.51157 122.82578 6469 ft 188 kts 357°
2026-04-23 05:04 10.52451 122.82473 6476 ft 186 kts 357°
2026-04-23 05:04 10.53744 122.82370 6470 ft 187 kts 358°
2026-04-23 05:04 10.55040 122.82282 6470 ft 186 kts 359°
2026-04-23 05:05 10.56336 122.82178 6466 ft 187 kts 358°
2026-04-23 05:05 10.57629 122.82071 6470 ft 186 kts 358°
2026-04-23 05:05 10.58918 122.81948 6469 ft 186 kts 358°
2026-04-23 05:05 10.60211 122.81836 6474 ft 187 kts 358°
2026-04-23 05:06 10.61505 122.81728 6468 ft 186 kts 358°
2026-04-23 05:06 10.62800 122.81650 6471 ft 186 kts 359°
2026-04-23 05:06 10.64093 122.81595 6466 ft 186 kts 360°
2026-04-23 05:06 10.65384 122.81536 6467 ft 185 kts 360°
2026-04-23 05:07 10.66656 122.81471 6471 ft 185 kts
2026-04-23 05:07 10.67956 122.81400 6471 ft 184 kts 359°
2026-04-23 05:07 10.69220 122.81338 6469 ft 184 kts 360°
2026-04-23 05:07 10.70499 122.81277 6466 ft 184 kts 360°
2026-04-23 05:08 10.71775 122.81225 6464 ft 184 kts
2026-04-23 05:08 10.73053 122.81160 6466 ft 184 kts 359°
2026-04-23 05:08 10.74329 122.81098 6467 ft 184 kts
2026-04-23 05:08 10.75608 122.81028 6464 ft 184 kts 359°
2026-04-23 05:09 10.76890 122.80965 6460 ft 184 kts
2026-04-23 05:09 10.78163 122.80900 6465 ft 183 kts 359°
2026-04-23 05:09 10.79441 122.80847 6467 ft 184 kts 359°
2026-04-23 05:09 10.80717 122.80808 6472 ft 184 kts 360°
2026-04-23 05:10 10.81995 122.80768 6467 ft 183 kts
2026-04-23 05:10 10.83274 122.80720 6471 ft 184 kts 360°
2026-04-23 05:10 10.84534 122.80673 6467 ft 183 kts 359°
2026-04-23 05:10 10.85807 122.80632 6469 ft 183 kts 359°
2026-04-23 05:11 10.87080 122.80593 6463 ft 183 kts 360°
2026-04-23 05:11 10.88352 122.80554 6467 ft 183 kts
2026-04-23 05:11 10.89622 122.80511 6469 ft 183 kts
2026-04-23 05:11 10.90892 122.80469 6469 ft 183 kts
2026-04-23 05:12 10.92164 122.80418 6468 ft 183 kts 360°
2026-04-23 05:12 10.93441 122.80376 6468 ft 184 kts 360°
2026-04-23 05:12 10.94716 122.80338 6472 ft 183 kts 360°
2026-04-23 05:12 10.95992 122.80306 6466 ft 183 kts 360°
2026-04-23 05:13 10.97267 122.80266 6474 ft 184 kts 360°
2026-04-23 05:13 10.98543 122.80226 6468 ft 183 kts 360°
2026-04-23 05:13 10.99819 122.80182 6467 ft 184 kts
2026-04-23 05:14 11.02390 122.80096 6473 ft 185 kts 360°
2026-04-23 05:14 11.03656 122.80060 6493 ft 183 kts
2026-04-23 05:14 11.04923 122.80043 6454 ft 183 kts
2026-04-23 05:14 11.06199 122.80037 6377 ft 184 kts
2026-04-23 05:15 11.07472 122.80041 6312 ft 182 kts
2026-04-23 05:15 11.08737 122.80078 6240 ft 182 kts
2026-04-23 05:15 11.10003 122.80141 6162 ft 181 kts
2026-04-23 05:15 11.11259 122.80219 6064 ft 182 kts
2026-04-23 05:16 11.12520 122.80316 5960 ft 181 kts
2026-04-23 05:16 11.13779 122.80404 5852 ft 181 kts
2026-04-23 05:16 11.15039 122.80457 5755 ft 181 kts
2026-04-23 05:16 11.16300 122.80505 5676 ft 181 kts
2026-04-23 05:17 11.17557 122.80575 5592 ft 181 kts
2026-04-23 05:17 11.18817 122.80655 5459 ft 182 kts
2026-04-23 05:17 11.20074 122.80752 5347 ft 180 kts
2026-04-23 05:17 11.21329 122.80889 5185 ft 182 kts
2026-04-23 05:18 11.22162 122.80969 5116 ft 181 kts
2026-04-23 05:18 11.23409 122.81077 5056 ft 178 kts
2026-04-23 05:18 11.24637 122.81179 4930 ft 179 kts
2026-04-23 05:18 11.26267 122.81339 4821 ft 175 kts
2026-04-23 05:19 11.27458 122.81601 4639 ft 177 kts 19°
2026-04-23 05:19 11.28644 122.81995 4526 ft 176 kts 19°
2026-04-23 05:19 11.29429 122.82183 4474 ft 175 kts 14°
2026-04-23 05:19 11.30630 122.82396 4341 ft 175 kts 10°
2026-04-23 05:20 11.31850 122.82531 4187 ft 177 kts
2026-04-23 05:20 11.33078 122.82633 4035 ft 176 kts
2026-04-23 05:20 11.34295 122.82723 3909 ft 176 kts
2026-04-23 05:20 11.35888 122.82823 3705 ft 171 kts
2026-04-23 05:21 11.36680 122.82829 3589 ft 174 kts
2026-04-23 05:21 11.37898 122.82734 3443 ft 175 kts 359°
2026-04-23 05:21 11.39103 122.82624 3378 ft 173 kts 356°
2026-04-23 05:21 11.40303 122.82486 3252 ft 174 kts 356°
2026-04-23 05:22 11.41524 122.82382 3071 ft 177 kts 358°
2026-04-23 05:22 11.42745 122.82214 2966 ft 177 kts 353°
2026-04-23 05:22 11.43928 122.81880 2862 ft 177 kts 341°
2026-04-23 05:22 11.45049 122.81349 2746 ft 178 kts 335°
2026-04-23 05:23 11.46135 122.80761 2646 ft 176 kts 335°
2026-04-23 05:23 11.47221 122.80163 2510 ft 177 kts 333°
2026-04-23 05:23 11.48298 122.79573 2422 ft 174 kts 336°
2026-04-23 05:23 11.49377 122.79034 2324 ft 172 kts 337°
2026-04-23 05:24 11.50438 122.78535 2239 ft 169 kts 340°
2026-04-23 05:24 11.51525 122.78074 2113 ft 168 kts 341°
2026-04-23 05:24 11.52604 122.77595 1949 ft 169 kts 338°
2026-04-23 05:24 11.53637 122.77026 1833 ft 168 kts 335°
2026-04-23 05:25 11.54642 122.76415 1721 ft 167 kts 332°
2026-04-23 05:25 11.55591 122.75758 1641 ft 164 kts 326°
2026-04-23 05:25 11.56466 122.75015 1555 ft 162 kts 325°
2026-04-23 05:25 11.57322 122.74297 1456 ft 154 kts 326°
2026-04-23 05:26 11.58139 122.73648 1341 ft 145 kts 327°
2026-04-23 05:26 11.58940 122.73056 1261 ft 141 kts 329°
2026-04-23 05:26 11.59737 122.72500 1144 ft 137 kts 330°
2026-04-23 05:26 11.60525 122.71956 981 ft 138 kts 330°
2026-04-23 05:27 11.61343 122.71480 842 ft 132 kts 355°
2026-04-23 05:27 11.62158 122.71761 638 ft 123 kts 50°
2026-04-23 05:27 11.62323 122.72539 643 ft 113 kts 96°
2026-04-23 05:27 11.62086 122.73313 571 ft 116 kts 114°
2026-04-23 05:28 11.61643 122.73906 445 ft 98 kts 134°
2026-04-23 05:28 11.61113 122.74329 278 ft 95 kts 137°
2026-04-23 05:28 11.60598 122.74707 99 ft 89 kts 140°
2026-04-23 05:28 11.60112 122.75046 3 ft 74 kts 139°
2026-04-23 05:29 11.59770 122.75286 4 ft 48 kts 144°
2026-04-23 05:29 11.59579 122.75427 3 ft 21 kts 134°
2026-04-23 05:29 11.59523 122.75446 3 ft 10 kts 319°
2026-04-23 05:29 11.59607 122.75396 3 ft 18 kts 328°
2026-04-23 05:30 11.59728 122.75314 4 ft 24 kts 325°
2026-04-23 05:30 11.59869 122.75216 3 ft 26 kts 324°
2026-04-23 05:30 11.60018 122.75108 3 ft 25 kts 323°
2026-04-23 05:30 11.60093 122.75024 4 ft 15 kts 271°
2026-04-23 05:31 11.60066 122.74960 -1 ft 11 kts 203°
2026-04-23 05:31 11.60040 122.74931 1 ft 0 kts 329°